createdAt,value
2023-04-01T00:02:35.292Z,98892.59
2023-04-01T00:05:38.329Z,98902.09
2023-04-01T00:08:41.423Z,98895.91
2023-04-01T00:11:45.556Z,98903.50
2023-04-01T00:14:48.691Z,98900.69
2023-04-01T00:17:51.510Z,98905.78
2023-04-01T00:20:54.527Z,98902.25
2023-04-01T00:23:57.371Z,98897.91
2023-04-01T00:27:01.053Z,98898.56
2023-04-01T00:30:04.734Z,98896.69
2023-04-01T00:33:07.894Z,98895.56
2023-04-01T00:36:17.095Z,98894.56
2023-04-01T00:39:23.449Z,98885.88
2023-04-01T00:42:26.867Z,98876.25
2023-04-01T00:45:32.518Z,98884.19
2023-04-01T00:48:39.420Z,98881.75
2023-04-01T00:51:44.102Z,98882.47
2023-04-01T00:54:49.189Z,98884.09
2023-04-01T00:57:54.965Z,98879.00
2023-04-01T01:01:00.416Z,98880.03
2023-04-01T01:04:03.445Z,98874.97
2023-04-01T01:07:28.056Z,98867.25
2023-04-01T01:10:40.481Z,98868.31
2023-04-01T01:13:57.598Z,98866.66
2023-04-01T01:17:19.286Z,98865.19
2023-04-01T01:20:50.852Z,98870.34
2023-04-01T01:24:08.750Z,98873.09
2023-04-01T01:27:15.295Z,98870.78
2023-04-01T01:30:59.080Z,98862.88
2023-04-01T01:34:21.466Z,98861.84
2023-04-01T01:37:28.400Z,98861.84
2023-04-01T01:40:34.318Z,98858.59
2023-04-01T01:43:43.193Z,98849.78
2023-04-01T01:46:48.791Z,98854.09
2023-04-01T01:49:53.262Z,98854.19
2023-04-01T01:53:08.228Z,98857.00
2023-04-01T01:56:16.737Z,98856.19
2023-04-01T01:59:22.083Z,98854.38
2023-04-01T02:02:26.758Z,98860.41
2023-04-01T02:05:32.147Z,98858.69
2023-04-01T02:08:41.392Z,98847.38
2023-04-01T02:11:52.224Z,98858.72
2023-04-01T02:15:07.497Z,98844.00
2023-04-01T02:18:13.107Z,98849.16
2023-04-01T02:21:16.934Z,98847.53
2023-04-01T02:24:23.435Z,98847.50
2023-04-01T02:27:26.956Z,98844.03
2023-04-01T02:30:32.891Z,98835.31
2023-04-01T02:33:36.542Z,98845.75
2023-04-01T02:36:39.586Z,98838.81
2023-04-01T02:39:43.741Z,98827.50
2023-04-01T02:42:50.437Z,98833.63
2023-04-01T02:45:53.692Z,98831.81
2023-04-01T02:48:56.299Z,98827.47
2023-04-01T02:52:00.667Z,98836.06
2023-04-01T02:55:03.739Z,98836.06
2023-04-01T02:58:07.490Z,98837.88
2023-04-01T03:01:10.478Z,98837.81
2023-04-01T03:04:13.575Z,98838.69
2023-04-01T03:07:16.084Z,98834.34
2023-04-01T03:10:19.227Z,98835.97
2023-04-01T03:13:21.758Z,98839.50
2023-04-01T03:16:25.332Z,98835.94
2023-04-01T03:19:28.132Z,98840.28
2023-04-01T03:22:32.299Z,98827.28
2023-04-01T03:25:35.227Z,98828.97
2023-04-01T03:28:38.558Z,98831.44
2023-04-01T03:31:41.225Z,98835.00
2023-04-01T03:34:44.420Z,98844.53
2023-04-01T03:37:47.103Z,98846.16
2023-04-01T03:40:50.457Z,98853.94
2023-04-01T03:43:54.403Z,98847.25
2023-04-01T03:46:57.594Z,98855.72
2023-04-01T03:50:00.463Z,98866.22
2023-04-01T03:53:03.646Z,98865.25
2023-04-01T03:56:07.628Z,98874.84
2023-04-01T03:59:11.380Z,98873.13
2023-04-01T04:02:14.024Z,98867.00
2023-04-01T04:05:17.390Z,98868.72
2023-04-01T04:08:22.541Z,98876.44
2023-04-01T04:11:26.741Z,98874.00
2023-04-01T04:14:29.297Z,98867.72
2023-04-01T04:17:32.828Z,98872.03
2023-04-01T04:20:36.027Z,98874.53
2023-04-01T04:23:39.230Z,98872.84
2023-04-01T04:26:41.885Z,98871.25
2023-04-01T04:29:45.099Z,98868.56
2023-04-01T04:32:47.704Z,98875.66
2023-04-01T04:35:51.350Z,98871.22
2023-04-01T04:38:53.916Z,98864.25
2023-04-01T04:41:57.401Z,98858.97
2023-04-01T04:44:59.974Z,98854.59
2023-04-01T04:48:03.841Z,98865.03
2023-04-01T04:51:06.945Z,98861.56
2023-04-01T04:54:10.468Z,98862.56
2023-04-01T04:57:15.420Z,98859.03
2023-04-01T05:00:19.366Z,98856.44
2023-04-01T05:03:22.641Z,98859.13
2023-04-01T05:06:26.708Z,98871.28
2023-04-01T05:09:29.345Z,98860.94
2023-04-01T05:12:34.857Z,98862.72
2023-04-01T05:15:38.307Z,98864.50
2023-04-01T05:18:41.568Z,98862.78
2023-04-01T05:21:44.121Z,98858.56
2023-04-01T05:24:47.184Z,98861.22
2023-04-01T05:27:49.728Z,98865.56
2023-04-01T05:30:52.888Z,98872.63
2023-04-01T05:33:56.205Z,98878.81
2023-04-01T05:36:59.160Z,98876.38
2023-04-01T05:40:01.843Z,98877.34
2023-04-01T05:43:05.583Z,98871.31
2023-04-01T05:46:08.508Z,98867.81
2023-04-01T05:49:12.338Z,98869.72
2023-04-01T05:52:15.596Z,98880.28
2023-04-01T05:55:18.860Z,98868.16
2023-04-01T05:58:21.457Z,98870.78
2023-04-01T06:01:24.560Z,98863.03
2023-04-01T06:04:33.433Z,98871.84
2023-04-01T06:07:36.313Z,98866.69
2023-04-01T06:10:39.212Z,98876.25
2023-04-01T06:14:11.464Z,98872.84
2023-04-01T06:17:26.703Z,98871.13
2023-04-01T06:20:35.378Z,98873.75
2023-04-01T06:24:06.682Z,98872.03
2023-04-01T06:27:38.016Z,98866.81
2023-04-01T06:30:44.916Z,98869.47
2023-04-01T06:34:04.626Z,98874.75
2023-04-01T06:37:16.833Z,98873.91
2023-04-01T06:40:44.992Z,98881.84
2023-04-01T06:44:11.176Z,98887.09
2023-04-01T06:47:31.631Z,98884.53
2023-04-01T06:51:02.328Z,98889.78
2023-04-01T06:54:17.823Z,98882.81
2023-04-01T06:57:29.613Z,98888.06
2023-04-01T07:00:40.209Z,98886.34
2023-04-01T07:03:54.628Z,98888.03
2023-04-01T07:07:10.178Z,98891.53
2023-04-01T07:10:29.173Z,98895.00
2023-04-01T07:13:56.372Z,98887.13
2023-04-01T07:17:07.604Z,98889.72
2023-04-01T07:20:10.474Z,98884.41
2023-04-01T07:23:25.446Z,98886.97
2023-04-01T07:26:28.955Z,98879.87
2023-04-01T07:29:34.124Z,98883.22
2023-04-01T07:32:49.794Z,98878.66
2023-04-01T07:36:10.993Z,98881.91
2023-04-01T07:39:29.385Z,98883.47
2023-04-01T07:42:55.822Z,98881.37
2023-04-01T07:46:24.039Z,98888.72
2023-04-01T07:49:40.579Z,98883.22
2023-04-01T07:53:29.008Z,98889.06
2023-04-01T07:56:57.011Z,98889.53
2023-04-01T08:00:04.681Z,98891.34
2023-04-01T08:03:32.176Z,98880.50
2023-04-01T08:06:44.161Z,98890.50
2023-04-01T08:10:06.434Z,98897.00
2023-04-01T08:13:36.473Z,98891.44
2023-04-01T08:17:01.834Z,98898.06
2023-04-01T08:20:26.120Z,98890.50
2023-04-01T08:23:38.421Z,98891.94
2023-04-01T08:26:48.210Z,98890.38
2023-04-01T08:30:00.972Z,98881.28
2023-04-01T08:33:16.825Z,98886.44
2023-04-01T08:36:55.294Z,98890.28
2023-04-01T08:40:11.171Z,98885.91
2023-04-01T08:43:32.315Z,98884.97
2023-04-01T08:46:53.738Z,98884.25
2023-04-01T08:50:25.818Z,98877.12
2023-04-01T08:53:48.946Z,98885.09
2023-04-01T08:57:16.606Z,98883.03
2023-04-01T09:00:37.593Z,98884.31
2023-04-01T09:03:56.790Z,98888.09
2023-04-01T09:07:10.439Z,98893.38
2023-04-01T09:10:20.293Z,98886.69
2023-04-01T09:13:59.945Z,98887.47
2023-04-01T09:17:05.413Z,98884.84
2023-04-01T09:20:36.737Z,98887.94
2023-04-01T09:23:56.353Z,98878.84
2023-04-01T09:27:11.457Z,98885.25
2023-04-01T09:30:14.205Z,98884.59
2023-04-01T09:33:49.615Z,98883.22
2023-04-01T09:37:28.349Z,98882.31
2023-04-01T09:40:59.427Z,98880.44
2023-04-01T09:44:07.272Z,98890.66
2023-04-01T09:47:29.483Z,98895.63
2023-04-01T09:50:56.716Z,98895.53
2023-04-01T09:54:25.689Z,98898.41
2023-04-01T09:57:42.641Z,98897.88
2023-04-01T10:00:49.270Z,98907.75
2023-04-01T10:04:10.856Z,98910.44
2023-04-01T10:07:29.857Z,98906.16
2023-04-01T10:10:47.741Z,98903.50
2023-04-01T10:14:02.805Z,98904.56
2023-04-01T10:17:20.497Z,98909.06
2023-04-01T10:20:47.275Z,98910.81
2023-04-01T10:24:13.035Z,98908.94
2023-04-01T10:27:47.350Z,98905.00
2023-04-01T10:31:03.237Z,98904.97
2023-04-01T10:34:44.686Z,98901.53
2023-04-01T10:38:03.430Z,98906.13
2023-04-01T10:41:29.642Z,98909.72
2023-04-01T10:44:39.819Z,98898.09
2023-04-01T10:48:08.290Z,98911.41
2023-04-01T10:51:49.421Z,98908.78
2023-04-01T10:55:24.265Z,98899.06
2023-04-01T10:59:06.924Z,98894.88
2023-04-01T11:02:58.481Z,98899.69
2023-04-01T11:06:33.227Z,98893.28
2023-04-01T11:09:39.279Z,98898.69
2023-04-01T11:13:06.646Z,98889.25
2023-04-01T11:16:27.591Z,98883.16
2023-04-01T11:19:49.415Z,98890.31
2023-04-01T11:22:57.039Z,98883.66
2023-04-01T11:26:08.791Z,98884.12
2023-04-01T11:30:06.359Z,98876.81
2023-04-01T11:33:28.297Z,98877.97
2023-04-01T11:36:53.212Z,98879.97
2023-04-01T11:40:26.664Z,98883.69
2023-04-01T11:51:16.840Z,98909.78
2023-04-01T11:54:53.702Z,98905.94
2023-04-01T11:58:24.352Z,98905.19
2023-04-01T12:01:51.152Z,98904.56
2023-04-01T12:05:17.993Z,98907.47
2023-04-01T12:08:42.461Z,98901.53
2023-04-01T12:12:01.939Z,98893.66
2023-04-01T12:15:24.863Z,98895.37
2023-04-01T12:18:33.599Z,98896.09
2023-04-01T12:22:02.642Z,98903.75
2023-04-01T12:25:08.828Z,98898.38
2023-04-01T12:28:24.313Z,98895.44
2023-04-01T12:31:43.994Z,98904.94
2023-04-01T12:35:24.452Z,98895.06
2023-04-01T12:38:46.695Z,98893.06
2023-04-01T12:42:12.266Z,98899.03
2023-04-01T12:45:31.644Z,98906.19
2023-04-01T12:48:54.804Z,98900.88
2023-04-01T12:52:12.260Z,98897.50
2023-04-01T12:55:53.769Z,98901.59
2023-04-01T12:59:44.864Z,98891.81
2023-04-01T13:03:02.651Z,98894.72
2023-04-01T13:06:21.279Z,98883.38
2023-04-01T13:09:52.062Z,98879.72
2023-04-01T13:13:27.832Z,98884.09
2023-04-01T13:16:38.877Z,98872.25
2023-04-01T13:20:05.798Z,98874.03
2023-04-01T13:23:44.391Z,98871.78
2023-04-01T13:26:55.157Z,98878.59
2023-04-01T13:30:16.668Z,98879.31
2023-04-01T13:33:33.436Z,98880.87
2023-04-01T13:36:42.241Z,98876.12
2023-04-01T13:40:04.234Z,98875.81
2023-04-01T13:43:29.732Z,98882.56
2023-04-01T13:46:51.414Z,98883.59
2023-04-01T13:50:13.345Z,98883.94
2023-04-01T13:53:34.240Z,98886.34
2023-04-01T13:57:02.121Z,98883.03
2023-04-01T14:00:33.360Z,98889.28
2023-04-01T14:03:56.086Z,98888.94
2023-04-01T14:07:09.538Z,98905.94
2023-04-01T14:10:29.274Z,98899.84
2023-04-01T14:13:41.090Z,98895.16
2023-04-01T14:16:50.419Z,98895.25
2023-04-01T14:20:08.896Z,98892.06
2023-04-01T14:23:17.786Z,98897.25
2023-04-01T14:26:46.549Z,98889.16
2023-04-01T14:30:28.990Z,98901.91
2023-04-01T14:33:48.360Z,98894.44
2023-04-01T14:37:08.582Z,98889.53
2023-04-01T14:40:24.219Z,98893.13
2023-04-01T14:43:55.062Z,98894.16
2023-04-01T14:47:23.332Z,98887.00
2023-04-01T14:50:30.282Z,98886.94
2023-04-01T14:53:40.080Z,98883.63
2023-04-01T14:56:46.116Z,98888.13
2023-04-01T15:00:32.906Z,98890.00
2023-04-01T15:03:36.220Z,98890.66
2023-04-01T15:07:00.050Z,98891.47
2023-04-01T15:10:35.953Z,98888.81
2023-04-01T15:13:56.934Z,98895.97
2023-04-01T15:17:15.822Z,98892.56
2023-04-01T15:21:03.410Z,98891.13
2023-04-01T15:24:26.174Z,98883.38
2023-04-01T15:27:44.442Z,98894.09
2023-04-01T15:31:00.451Z,98900.34
2023-04-01T15:34:14.970Z,98906.59
2023-04-01T15:37:37.204Z,98903.13
2023-04-01T15:40:45.841Z,98897.91
2023-04-01T15:43:52.939Z,98902.31
2023-04-01T15:46:59.041Z,98900.50
2023-04-01T15:50:21.514Z,98906.56
2023-04-01T15:53:36.348Z,98898.78
2023-04-01T15:57:01.058Z,98902.50
2023-04-01T16:00:33.821Z,98907.91
2023-04-01T16:03:58.606Z,98928.94
2023-04-01T16:07:07.146Z,98916.78
2023-04-01T16:10:29.080Z,98919.31
2023-04-01T16:14:08.086Z,98925.56
2023-04-01T16:17:44.507Z,98920.25
2023-04-01T16:20:58.849Z,98925.56
2023-04-01T16:24:15.054Z,98923.09
2023-04-01T16:27:23.362Z,98933.50
2023-04-01T16:30:41.069Z,98938.91
2023-04-01T16:34:11.756Z,98940.72
2023-04-01T16:37:21.937Z,98940.75
2023-04-01T16:40:47.208Z,98939.00
2023-04-01T16:43:56.443Z,98942.50
2023-04-01T16:47:14.752Z,98938.25
2023-04-01T16:50:26.026Z,98949.69
2023-04-01T16:53:49.017Z,98945.38
2023-04-01T16:56:57.467Z,98941.94
2023-04-01T17:00:25.442Z,98952.44
2023-04-01T17:03:43.659Z,98955.13
2023-04-01T17:06:54.800Z,98960.41
2023-04-01T17:10:36.107Z,98957.75
2023-04-01T17:13:55.824Z,98953.44
2023-04-01T17:17:23.061Z,98961.38
2023-04-01T17:20:51.150Z,98978.03
2023-04-01T17:24:06.387Z,98973.69
2023-04-01T17:27:47.937Z,98974.59
2023-04-01T17:31:22.367Z,98976.34
2023-04-01T17:34:43.068Z,98981.59
2023-04-01T17:37:46.724Z,98986.81
2023-04-01T17:41:14.324Z,98992.06
2023-04-01T17:44:43.169Z,98991.19
2023-04-01T17:47:48.675Z,98999.94
2023-04-01T17:51:01.236Z,98992.06
2023-04-01T17:54:21.722Z,98987.69
2023-04-01T17:57:59.794Z,98999.03
2023-04-01T18:01:20.944Z,99003.41
2023-04-01T18:05:05.760Z,99007.75
2023-04-01T18:08:18.802Z,99018.25
2023-04-01T18:11:29.532Z,99016.47
2023-04-01T18:15:13.786Z,99030.44
2023-04-01T18:18:35.519Z,99024.31
2023-04-01T18:21:51.457Z,99032.16
2023-04-01T18:25:12.838Z,99037.41
2023-04-01T18:28:33.993Z,99040.03
2023-04-01T18:31:42.458Z,99049.63
2023-04-01T18:34:52.383Z,99047.81
2023-04-01T18:38:05.858Z,99049.59
2023-04-01T18:41:43.982Z,99053.06
2023-04-01T18:44:52.266Z,99060.91
2023-04-01T18:48:24.265Z,99056.53
2023-04-01T18:51:54.988Z,99067.84
2023-04-01T18:55:03.674Z,99068.69
2023-04-01T18:58:23.848Z,99068.66
2023-04-01T19:01:38.166Z,99071.25
2023-04-01T19:04:47.659Z,99076.47
2023-04-01T19:07:56.068Z,99079.94
2023-04-01T19:10:59.100Z,99073.84
2023-04-01T19:14:20.010Z,99078.19
2023-04-01T19:17:45.208Z,99076.41
2023-04-01T19:20:58.427Z,99079.00
2023-04-01T19:24:14.178Z,99079.84
2023-04-01T19:27:37.564Z,99076.38
2023-04-01T19:31:04.794Z,99081.59
2023-04-01T19:34:20.099Z,99081.59
2023-04-01T19:37:46.024Z,99085.03
2023-04-01T19:40:54.637Z,99081.56
2023-04-01T19:44:18.997Z,99084.16
2023-04-01T19:47:21.564Z,99091.94
2023-04-01T19:50:36.393Z,99095.44
2023-04-01T19:53:45.566Z,99101.53
2023-04-01T19:57:00.954Z,99097.16
2023-04-01T20:00:37.378Z,99103.22
2023-04-01T20:04:03.505Z,99096.22
2023-04-01T20:07:10.245Z,99099.66
2023-04-01T20:11:01.556Z,99100.50
2023-04-01T20:14:22.533Z,99106.56
2023-04-01T20:17:37.730Z,99107.41
2023-04-01T20:20:41.940Z,99098.72
2023-04-01T20:23:52.314Z,99103.03
2023-04-01T20:27:22.076Z,99098.66
2023-04-01T20:30:37.543Z,99100.38
2023-04-01T20:34:18.745Z,99099.50
2023-04-01T20:37:36.695Z,99100.38
2023-04-01T20:40:51.055Z,99103.91
2023-04-01T20:44:06.092Z,99104.81
2023-04-01T20:47:44.056Z,99106.56
2023-04-01T20:50:52.357Z,99109.16
2023-04-01T20:54:27.531Z,99106.53
2023-04-01T20:57:44.064Z,99121.34
2023-04-01T21:01:08.307Z,99123.00
2023-04-01T21:04:27.236Z,99136.06
2023-04-01T21:07:38.435Z,99135.09
2023-04-01T21:10:47.903Z,99141.16
2023-04-01T21:13:56.539Z,99131.56
2023-04-01T21:17:05.274Z,99132.41
2023-04-01T21:20:29.434Z,99130.63
2023-04-01T21:24:03.237Z,99133.25
2023-04-01T21:27:30.454Z,99146.28
2023-04-01T21:30:41.836Z,99141.91
2023-04-01T21:34:12.005Z,99141.94
2023-04-01T21:37:42.469Z,99142.75
2023-04-01T21:40:51.104Z,99152.31
2023-04-01T21:44:10.122Z,99150.62
2023-04-01T21:47:53.595Z,99161.06
2023-04-01T21:51:02.709Z,99155.87
2023-04-01T21:54:19.005Z,99160.13
2023-04-01T21:57:47.295Z,99160.13
2023-04-01T22:01:08.234Z,99161.00
2023-04-01T22:04:20.763Z,99153.09
2023-04-01T22:07:29.223Z,99164.44
2023-04-01T22:10:42.566Z,99160.09
2023-04-01T22:14:07.688Z,99167.75
2023-04-01T22:17:33.207Z,99160.81
2023-04-01T22:20:51.432Z,99177.41
2023-04-01T22:24:28.916Z,99174.62
2023-04-01T22:27:43.290Z,99172.91
2023-04-01T22:30:57.550Z,99176.25
2023-04-01T22:34:36.228Z,99178.22
2023-04-01T22:38:05.838Z,99175.56
2023-04-01T22:41:29.761Z,99177.41
2023-04-01T22:44:43.692Z,99185.13
2023-04-01T22:47:52.535Z,99196.34
2023-04-01T22:51:09.096Z,99198.84
2023-04-01T22:54:27.361Z,99206.63
2023-04-01T22:57:37.964Z,99203.16
2023-04-01T23:00:46.494Z,99202.22
2023-04-01T23:03:52.618Z,99210.94
2023-04-01T23:07:00.818Z,99212.78
2023-04-01T23:10:13.058Z,99214.59
2023-04-01T23:13:23.436Z,99215.56
2023-04-01T23:16:34.209Z,99218.84
2023-04-01T23:19:51.902Z,99223.13
2023-04-01T23:23:06.905Z,99223.22
2023-04-01T23:26:38.854Z,99227.47
2023-04-01T23:29:43.851Z,99225.56
2023-04-01T23:32:46.487Z,99228.94
2023-04-01T23:36:06.194Z,99236.69
2023-04-01T23:39:35.152Z,99227.28
2023-04-01T23:42:42.888Z,99226.28
2023-04-01T23:45:45.594Z,99221.94
2023-04-01T23:48:49.974Z,99226.28
2023-04-01T23:51:59.855Z,99242.81
2023-04-01T23:55:12.318Z,99245.16
2023-04-01T23:58:27.342Z,99250.31
